Time;durP1;ratioP1;P1;durP2;ratioP2;P2;SDS_P1;SDS_P2;PMS_P1;PMS_P2;Temp;Humidity;BMP_temperature;BMP_pressure;BME280_temperature;BME280_humidity;BME280_pressure;Samples;Min_cycle;Max_cycle;Signal;HPM_P1;HPM_P2
2024/01/22 00:01:09;;;;;;;12.15;2.47;;;13.20;99.90;;;;;;5072221;28;20078;-85
2024/01/22 00:03:34;;;;;;;11.35;2.42;;;13.20;99.90;;;;;;5071581;28;20025;-85
2024/01/22 00:06:00;;;;;;;10.85;2.60;;;13.20;99.90;;;;;;5071651;28;20496;-84
2024/01/22 00:08:26;;;;;;;13.50;2.40;;;13.20;99.90;;;;;;5070670;28;20424;-85
2024/01/22 00:10:51;;;;;;;11.50;2.15;;;13.30;99.90;;;;;;5071022;28;20054;-85
2024/01/22 00:13:17;;;;;;;10.45;2.22;;;13.30;99.90;;;;;;5071006;28;20025;-85
2024/01/22 00:15:42;;;;;;;11.30;2.63;;;13.20;99.90;;;;;;5071724;28;20523;-85
2024/01/22 00:18:08;;;;;;;10.48;2.65;;;13.30;99.90;;;;;;5070845;28;20043;-85
2024/01/22 00:20:34;;;;;;;15.32;2.50;;;13.30;99.90;;;;;;5070821;28;20654;-84
2024/01/22 00:22:59;;;;;;;15.13;2.67;;;13.30;99.90;;;;;;5070718;28;20059;-85
2024/01/22 00:25:25;;;;;;;14.57;2.60;;;13.20;99.90;;;;;;5069824;28;20401;-84
2024/01/22 00:27:50;;;;;;;10.45;2.40;;;13.30;99.90;;;;;;5070648;28;20099;-85
2024/01/22 00:30:16;;;;;;;16.08;2.78;;;13.20;99.90;;;;;;5070626;28;20036;-84
2024/01/22 00:32:42;;;;;;;16.50;2.47;;;13.10;99.90;;;;;;5071386;28;20020;-84
2024/01/22 00:35:07;;;;;;;14.82;3.30;;;13.00;99.90;;;;;;5070396;28;20036;-84
2024/01/22 00:37:33;;;;;;;12.10;2.72;;;12.90;99.90;;;;;;5070556;28;20095;-84
2024/01/22 00:39:59;;;;;;;11.85;2.47;;;13.00;99.90;;;;;;5070503;28;20481;-83
2024/01/22 00:42:24;;;;;;;10.88;2.55;;;13.00;99.90;;;;;;5069710;28;20025;-84
2024/01/22 00:44:50;;;;;;;10.77;2.25;;;12.90;99.90;;;;;;5070347;28;20035;-84
2024/01/22 00:47:16;;;;;;;10.00;2.67;;;13.00;99.90;;;;;;5070630;28;20357;-84
2024/01/22 00:49:44;;;;;;;11.65;2.13;;;12.90;99.90;;;;;;5070941;28;20107;-83
2024/01/22 00:52:10;;;;;;;10.60;2.55;;;12.90;99.90;;;;;;5068822;28;20158;-83
2024/01/22 00:54:35;;;;;;;8.15;1.83;;;12.90;99.90;;;;;;5069704;28;20423;-84
2024/01/22 00:57:01;;;;;;;13.13;2.20;;;12.90;99.90;;;;;;5070067;28;20021;-84
2024/01/22 00:59:26;;;;;;;7.43;2.00;;;12.80;99.90;;;;;;5070051;28;20045;-84
2024/01/22 01:01:52;;;;;;;8.15;2.00;;;12.90;99.90;;;;;;5068486;28;20017;-84
2024/01/22 01:04:17;;;;;;;10.77;2.30;;;12.80;99.90;;;;;;5069897;28;20503;-84
2024/01/22 01:06:43;;;;;;;9.32;1.88;;;12.90;99.90;;;;;;5070662;28;20024;-84
2024/01/22 01:09:09;;;;;;;10.25;2.28;;;12.90;99.90;;;;;;5069518;28;20021;-84
2024/01/22 01:11:34;;;;;;;7.65;1.80;;;12.80;99.90;;;;;;5069661;28;20503;-84
2024/01/22 01:14:00;;;;;;;7.78;1.75;;;12.80;99.90;;;;;;5069781;28;20017;-84
2024/01/22 01:16:27;;;;;;;7.00;1.90;;;12.80;99.90;;;;;;5069566;28;20033;-84
2024/01/22 01:18:53;;;;;;;5.90;1.58;;;12.80;99.90;;;;;;5069552;28;20029;-84
2024/01/22 01:21:22;;;;;;;7.35;1.77;;;12.80;99.90;;;;;;5069606;28;20480;-84
2024/01/22 01:23:49;;;;;;;6.15;1.40;;;12.80;99.90;;;;;;5069628;28;20039;-84
2024/01/22 01:26:14;;;;;;;8.27;1.63;;;12.80;99.90;;;;;;5070036;28;20082;-83
2024/01/22 01:28:40;;;;;;;8.00;1.45;;;12.80;99.90;;;;;;5069374;28;20075;-84
2024/01/22 01:31:05;;;;;;;2.38;1.05;;;12.80;99.90;;;;;;5068322;28;20082;-83
2024/01/22 01:33:32;;;;;;;2.50;0.93;;;12.80;99.90;;;;;;5069449;28;20027;-83
2024/01/22 01:35:57;;;;;;;4.03;1.10;;;12.80;99.90;;;;;;5069374;28;20032;-83
2024/01/22 01:38:23;;;;;;;6.18;1.33;;;12.80;99.90;;;;;;5069201;28;20032;-83
2024/01/22 01:40:49;;;;;;;2.85;0.93;;;12.80;99.90;;;;;;5069607;28;20116;-84
2024/01/22 01:43:16;;;;;;;2.38;0.90;;;12.80;99.90;;;;;;5069938;28;20115;-83
2024/01/22 01:45:41;;;;;;;4.57;1.30;;;12.80;99.90;;;;;;5069093;28;20046;-84
2024/01/22 01:48:07;;;;;;;2.40;0.93;;;12.70;99.90;;;;;;5069189;28;20104;-83
2024/01/22 01:50:33;;;;;;;5.30;1.20;;;12.80;99.90;;;;;;5069156;28;20024;-83
2024/01/22 01:53:00;;;;;;;2.72;0.90;;;12.80;99.90;;;;;;5069124;28;20024;-83
2024/01/22 01:55:26;;;;;;;5.22;1.00;;;12.70;99.90;;;;;;5067697;28;20062;-83
2024/01/22 01:57:52;;;;;;;2.20;1.02;;;12.80;99.90;;;;;;5069041;28;20519;-83
2024/01/22 02:00:18;;;;;;;3.08;1.00;;;12.80;99.90;;;;;;5069870;28;20025;-85
2024/01/22 02:02:44;;;;;;;2.70;1.00;;;12.80;99.90;;;;;;5069012;28;20028;-85
2024/01/22 02:05:13;;;;;;;3.65;1.00;;;12.80;99.90;;;;;;5068650;28;20355;-83
2024/01/22 02:07:38;;;;;;;1.33;0.80;;;12.80;99.90;;;;;;5068964;28;20031;-83
2024/01/22 02:10:05;;;;;;;5.82;1.55;;;12.80;99.90;;;;;;5069131;28;20024;-84
2024/01/22 02:12:30;;;;;;;4.35;1.05;;;12.80;99.90;;;;;;5068621;28;20029;-84
2024/01/22 02:14:56;;;;;;;2.10;0.80;;;12.70;99.90;;;;;;5070024;28;20023;-83
2024/01/22 02:17:21;;;;;;;1.58;0.80;;;12.80;99.90;;;;;;5068263;28;20431;-83
2024/01/22 02:19:49;;;;;;;1.50;1.02;;;12.90;99.90;;;;;;5069157;28;20522;-82
2024/01/22 02:22:15;;;;;;;1.52;0.57;;;12.80;99.90;;;;;;5068412;28;20017;-84
2024/01/22 02:24:40;;;;;;;1.73;0.63;;;12.80;99.90;;;;;;5068285;28;20568;-83
2024/01/22 02:27:06;;;;;;;1.83;0.80;;;12.80;99.90;;;;;;5068262;28;20039;-83
2024/01/22 02:29:32;;;;;;;3.38;0.77;;;12.80;99.90;;;;;;5073725;28;20044;-83
2024/01/22 02:31:58;;;;;;;4.15;1.20;;;12.80;99.90;;;;;;5070605;28;20025;-83
2024/01/22 02:34:24;;;;;;;1.27;0.73;;;12.80;99.90;;;;;;5064701;28;20034;-83
2024/01/22 02:36:50;;;;;;;1.75;0.77;;;12.80;99.90;;;;;;5069353;28;20099;-84
2024/01/22 02:39:16;;;;;;;1.48;0.63;;;12.80;99.90;;;;;;5068052;28;20169;-83
2024/01/22 02:41:42;;;;;;;2.65;0.75;;;12.70;99.90;;;;;;5065466;28;20119;-84
2024/01/22 02:44:07;;;;;;;1.85;0.60;;;12.80;99.90;;;;;;5068258;28;20540;-83
2024/01/22 02:46:33;;;;;;;0.60;0.50;;;12.80;99.90;;;;;;5075212;28;20024;-84
2024/01/22 02:48:59;;;;;;;0.82;0.65;;;12.90;99.90;;;;;;5068640;28;20021;-84
2024/01/22 02:51:25;;;;;;;2.75;0.77;;;12.80;99.90;;;;;;5068649;28;20025;-84
2024/01/22 02:53:52;;;;;;;2.33;0.70;;;12.80;99.90;;;;;;5069425;28;20036;-84
2024/01/22 02:56:19;;;;;;;2.03;0.80;;;12.80;99.90;;;;;;5068304;28;20034;-83
2024/01/22 02:58:45;;;;;;;1.95;0.77;;;12.80;99.90;;;;;;5063749;28;20029;-83
2024/01/22 03:01:10;;;;;;;2.40;0.70;;;12.90;99.90;;;;;;5068468;28;20026;-83
2024/01/22 03:03:36;;;;;;;2.30;0.73;;;12.80;99.90;;;;;;5067940;28;20033;-84
2024/01/22 03:06:01;;;;;;;3.10;0.98;;;12.90;99.90;;;;;;5070451;28;20023;-83
2024/01/22 03:08:27;;;;;;;4.00;0.80;;;12.90;99.90;;;;;;5070008;28;20055;-82
2024/01/22 03:10:53;;;;;;;1.30;0.85;;;12.90;99.90;;;;;;5051184;28;20101;-84
2024/01/22 03:13:18;;;;;;;3.35;0.90;;;12.90;99.90;;;;;;5052246;28;20069;-83
2024/01/22 03:15:44;;;;;;;1.08;0.77;;;12.90;99.90;;;;;;5050943;28;20025;-83
2024/01/22 03:18:09;;;;;;;2.83;0.82;;;12.90;99.90;;;;;;5068947;28;20028;-84
2024/01/22 03:20:37;;;;;;;1.75;0.88;;;13.00;99.90;;;;;;5071067;28;20025;-84
2024/01/22 03:23:03;;;;;;;2.00;0.85;;;12.90;99.90;;;;;;5071041;28;20174;-84
2024/01/22 03:25:29;;;;;;;1.75;0.85;;;13.00;99.90;;;;;;5069399;28;20043;-84
2024/01/22 03:27:55;;;;;;;3.00;0.80;;;13.00;99.90;;;;;;5051274;28;20029;-84
2024/01/22 03:30:20;;;;;;;3.72;0.88;;;13.00;99.90;;;;;;5065480;28;20031;-84
2024/01/22 03:32:46;;;;;;;2.45;1.17;;;13.00;99.90;;;;;;5091806;28;20024;-84
2024/01/22 03:35:12;;;;;;;3.00;1.00;;;13.00;99.90;;;;;;5090735;28;20081;-84
2024/01/22 03:37:37;;;;;;;2.90;1.00;;;13.10;99.90;;;;;;5089289;28;20059;-84
2024/01/22 03:40:03;;;;;;;2.63;1.05;;;13.10;99.90;;;;;;5090872;28;20024;-85
2024/01/22 03:42:29;;;;;;;3.20;1.20;;;13.10;99.90;;;;;;5087369;28;20099;-85
2024/01/22 03:44:54;;;;;;;5.50;1.02;;;13.20;99.90;;;;;;5051180;28;20082;-84
2024/01/22 03:47:20;;;;;;;4.80;1.20;;;13.20;99.90;;;;;;5052011;28;20032;-84
2024/01/22 03:49:45;;;;;;;1.67;1.10;;;13.10;99.90;;;;;;5050448;28;20036;-85
2024/01/22 03:52:11;;;;;;;2.15;0.70;;;13.20;99.90;;;;;;5051215;28;20054;-85
2024/01/22 03:54:37;;;;;;;2.20;1.05;;;13.20;99.90;;;;;;5068535;28;20067;-85
2024/01/22 03:57:06;;;;;;;2.83;0.95;;;13.20;99.90;;;;;;5070434;28;20025;-85
2024/01/22 03:59:36;;;;;;;1.95;0.80;;;13.20;99.90;;;;;;5069861;28;20024;-85
2024/01/22 04:02:02;;;;;;;3.17;0.80;;;13.20;99.90;;;;;;5070792;28;20423;-85
2024/01/22 04:04:27;;;;;;;3.63;1.05;;;13.20;99.90;;;;;;5071060;28;20025;-84
2024/01/22 04:06:53;;;;;;;5.00;1.10;;;13.20;99.90;;;;;;5071955;28;20036;-84
2024/01/22 04:09:18;;;;;;;3.13;1.45;;;13.30;99.90;;;;;;5070895;28;20564;-85
2024/01/22 04:11:44;;;;;;;4.93;1.17;;;13.10;99.90;;;;;;5070181;28;20020;-86
2024/01/22 04:14:09;;;;;;;2.47;0.95;;;13.20;99.90;;;;;;5070991;28;20095;-85
2024/01/22 04:16:35;;;;;;;5.72;1.33;;;13.20;99.90;;;;;;5069249;28;20400;-85
2024/01/22 04:19:01;;;;;;;6.35;1.30;;;13.10;99.90;;;;;;5070466;28;20111;-85
2024/01/22 04:21:28;;;;;;;8.75;1.40;;;13.20;99.90;;;;;;5070948;28;20032;-83
2024/01/22 04:23:53;;;;;;;7.85;1.50;;;13.20;99.90;;;;;;5071273;28;20023;-85
2024/01/22 04:26:19;;;;;;;9.90;1.70;;;13.20;99.90;;;;;;5069938;28;20025;-85
2024/01/22 04:28:45;;;;;;;9.70;2.20;;;13.20;99.90;;;;;;5070617;28;20029;-84
2024/01/22 04:31:11;;;;;;;7.03;1.73;;;13.20;99.90;;;;;;5070826;28;20046;-84
2024/01/22 04:33:37;;;;;;;14.23;2.60;;;13.20;99.90;;;;;;5069760;28;20032;-85
2024/01/22 04:36:03;;;;;;;10.65;2.35;;;13.20;99.90;;;;;;5070529;28;20065;-84
2024/01/22 04:38:30;;;;;;;17.70;2.22;;;13.20;99.90;;;;;;5069106;28;20442;-84
2024/01/22 04:40:57;;;;;;;17.17;2.95;;;13.20;99.90;;;;;;5071127;28;20095;-84
2024/01/22 04:43:23;;;;;;;15.82;3.10;;;13.20;99.90;;;;;;5070579;28;20032;-83
2024/01/22 04:45:49;;;;;;;15.00;2.53;;;13.20;99.90;;;;;;5070027;28;20074;-85
2024/01/22 04:48:14;;;;;;;15.30;2.53;;;13.30;99.90;;;;;;5070228;28;20020;-85
2024/01/22 04:50:40;;;;;;;15.30;2.67;;;13.20;99.90;;;;;;5068900;28;20039;-84
2024/01/22 04:53:06;;;;;;;22.20;3.10;;;13.20;99.90;;;;;;5069089;28;20024;-82
2024/01/22 04:55:32;;;;;;;23.55;3.40;;;;;;;;;;5069657;28;20032;-87
2024/01/22 04:57:58;;;;;;;12.27;2.80;;;13.20;99.90;;;;;;5071067;28;20054;-87
2024/01/22 05:00:24;;;;;;;16.42;3.20;;;13.40;99.90;;;;;;5070973;28;20436;-87
2024/01/22 05:02:49;;;;;;;18.20;2.92;;;13.50;99.90;;;;;;5069069;28;20078;-86
2024/01/22 05:05:15;;;;;;;12.38;2.65;;;;;;;;;;5069478;28;20552;-89
2024/01/22 05:07:41;;;;;;;13.45;3.20;;;13.60;99.90;;;;;;5067220;28;20020;-87
2024/01/22 05:10:11;;;;;;;15.20;3.13;;;13.60;99.90;;;;;;5068347;28;20024;-86
2024/01/22 05:12:39;;;;;;;13.55;2.55;;;13.60;99.90;;;;;;5067505;28;20098;-86
2024/01/22 05:15:06;;;;;;;17.90;3.05;;;13.50;99.90;;;;;;5068876;28;20147;-87
2024/01/22 05:17:32;;;;;;;15.82;2.78;;;13.50;99.90;;;;;;5069872;28;20024;-87
2024/01/22 05:19:59;;;;;;;18.27;3.40;;;13.50;99.90;;;;;;5069593;28;20032;-87
2024/01/22 05:22:25;;;;;;;17.00;3.30;;;;;;;;;;5069498;28;20035;-87
2024/01/22 05:24:51;;;;;;;13.60;2.97;;;13.40;99.90;;;;;;5070970;28;20031;-87
2024/01/22 05:27:18;;;;;;;14.88;2.78;;;13.40;99.90;;;;;;5058225;28;20029;-86
2024/01/22 05:29:44;;;;;;;23.23;4.38;;;;;;;;;;5063553;28;20537;-88
2024/01/22 05:32:10;;;;;;;22.70;3.15;;;;;;;;;;5062325;28;20052;-89
2024/01/22 05:34:36;;;;;;;22.58;3.78;;;13.10;99.90;;;;;;5067019;28;20024;-87
2024/01/22 05:37:01;;;;;;;24.65;3.65;;;13.20;99.90;;;;;;5069469;28;20043;-89
2024/01/22 05:39:27;;;;;;;23.38;4.22;;;13.00;99.90;;;;;;5070549;28;20044;-88
2024/01/22 05:41:54;;;;;;;17.55;3.53;;;13.10;99.90;;;;;;5068263;28;20033;-89
2024/01/22 05:44:20;;;;;;;26.55;4.65;;;13.00;99.90;;;;;;5068174;28;20025;-86
2024/01/22 05:46:46;;;;;;;20.10;4.28;;;13.00;99.90;;;;;;5069472;28;20036;-87
2024/01/22 05:49:11;;;;;;;28.40;5.15;;;12.90;99.90;;;;;;5069484;28;20099;-88
2024/01/22 05:51:37;;;;;;;24.95;4.18;;;12.90;99.90;;;;;;5076506;28;20534;-86
2024/01/22 05:54:02;;;;;;;25.40;4.90;;;12.80;99.90;;;;;;5075352;28;20024;-85
2024/01/22 05:56:28;;;;;;;26.52;4.40;;;12.70;99.90;;;;;;5070599;28;20434;-88
2024/01/22 05:58:55;;;;;;;22.13;5.03;;;12.70;99.90;;;;;;5070494;28;20099;-86
2024/01/22 06:01:22;;;;;;;28.58;5.38;;;12.70;99.90;;;;;;5069781;28;20025;-86
2024/01/22 06:03:48;;;;;;;31.63;5.15;;;12.70;99.90;;;;;;5070805;28;20032;-86
2024/01/22 06:06:14;;;;;;;29.27;4.13;;;12.60;99.90;;;;;;5075768;28;20024;-86
2024/01/22 06:08:44;;;;;;;33.13;5.95;;;11.10;99.90;;;;;;5089733;28;20025;-87
2024/01/22 06:11:14;;;;;;;22.88;4.65;;;12.50;99.90;;;;;;5089516;28;20548;-86
2024/01/22 06:13:41;;;;;;;31.67;5.10;;;12.50;99.90;;;;;;5089313;28;20074;-86
2024/01/22 06:16:10;;;;;;;32.63;4.95;;;12.50;99.90;;;;;;5087981;28;20020;-86
2024/01/22 06:18:37;;;;;;;37.80;5.90;;;12.50;99.90;;;;;;5087749;28;20040;-86
2024/01/22 06:21:04;;;;;;;32.85;6.53;;;12.50;99.90;;;;;;5078958;28;20048;-85
2024/01/22 06:23:31;;;;;;;39.05;6.38;;;12.50;99.90;;;;;;5069820;28;20025;-86
2024/01/22 06:25:57;;;;;;;35.58;6.40;;;12.50;99.90;;;;;;5068797;28;20040;-86
2024/01/22 06:28:27;;;;;;;35.22;5.93;;;12.40;99.90;;;;;;5068716;28;20337;-86
2024/01/22 06:30:53;;;;;;;35.00;5.97;;;12.50;99.90;;;;;;5068453;28;20029;-86
2024/01/22 06:33:20;;;;;;;30.42;5.55;;;12.50;99.90;;;;;;5068623;28;20387;-87
2024/01/22 06:35:46;;;;;;;30.85;5.65;;;;;;;;;;5068612;28;20020;-86
2024/01/22 06:38:12;;;;;;;34.88;6.70;;;12.40;99.90;;;;;;5068742;28;20109;-87
2024/01/22 06:40:38;;;;;;;36.60;5.72;;;12.40;99.90;;;;;;5070251;28;20108;-85
2024/01/22 06:43:04;;;;;;;38.00;6.38;;;12.40;99.90;;;;;;5073596;28;20107;-87
2024/01/22 06:45:30;;;;;;;30.17;5.82;;;;;;;;;;5073147;28;20498;-86
2024/01/22 06:47:56;;;;;;;30.30;5.75;;;12.40;99.90;;;;;;5072691;28;20099;-86
2024/01/22 06:50:23;;;;;;;38.47;6.13;;;12.30;99.90;;;;;;5072596;28;20073;-86
2024/01/22 06:52:49;;;;;;;35.13;6.22;;;12.20;99.90;;;;;;5072565;28;20075;-86
2024/01/22 06:55:15;;;;;;;35.65;6.32;;;12.20;99.90;;;;;;5070762;28;20024;-86
2024/01/22 06:57:41;;;;;;;38.95;6.88;;;12.30;99.90;;;;;;5070633;28;20032;-86
2024/01/22 07:00:07;;;;;;;35.85;6.32;;;12.30;99.90;;;;;;5072271;28;20081;-86
2024/01/22 07:02:41;;;;;;;40.10;6.22;;;12.20;99.90;;;;;;5071832;28;20017;-86
2024/01/22 07:05:08;;;;;;;31.63;5.20;;;12.30;99.90;;;;;;5071747;28;20025;-87
2024/01/22 07:07:34;;;;;;;33.25;5.80;;;12.20;99.90;;;;;;5085217;28;20502;-86
2024/01/22 07:09:59;;;;;;;36.85;5.82;;;12.50;99.90;;;;;;5091145;28;20055;-86
2024/01/22 07:12:25;;;;;;;35.80;6.45;;;12.30;99.90;;;;;;5092545;28;20035;-86
2024/01/22 07:14:51;;;;;;;40.67;6.45;;;12.40;99.90;;;;;;5092279;28;20391;-86
2024/01/22 07:17:19;;;;;;;31.80;6.38;;;12.40;99.90;;;;;;5090898;28;20023;-85
2024/01/22 07:19:45;;;;;;;34.90;5.32;;;12.50;99.90;;;;;;5083415;28;20492;-86
2024/01/22 07:22:10;;;;;;;40.45;6.55;;;12.40;99.90;;;;;;5071899;28;20096;-87
2024/01/22 07:24:36;;;;;;;43.80;6.40;;;12.40;99.90;;;;;;5071923;28;20021;-86
2024/01/22 07:27:02;;;;;;;44.63;6.72;;;12.50;99.90;;;;;;5072489;28;20031;-86
2024/01/22 07:29:28;;;;;;;36.72;6.45;;;;;;;;;;5071732;28;20032;-86
2024/01/22 07:31:54;;;;;;;41.53;6.78;;;12.40;99.90;;;;;;5071839;28;20090;-86
2024/01/22 07:34:20;;;;;;;39.30;6.50;;;12.40;99.90;;;;;;5072459;28;20020;-86
2024/01/22 07:36:46;;;;;;;39.78;7.75;;;12.30;99.90;;;;;;5071632;28;20024;-86
2024/01/22 07:39:12;;;;;;;46.72;6.03;;;12.30;99.90;;;;;;5070143;28;20040;-86
2024/01/22 07:41:38;;;;;;;40.13;7.05;;;12.30;99.90;;;;;;5071560;28;20071;-87
2024/01/22 07:44:04;;;;;;;36.75;6.28;;;12.30;99.90;;;;;;5072309;28;20073;-87
2024/01/22 07:46:30;;;;;;;35.55;6.25;;;12.20;99.90;;;;;;5070247;28;20112;-86
2024/01/22 07:48:56;;;;;;;30.38;5.97;;;12.20;99.90;;;;;;5071107;28;20814;-86
2024/01/22 07:51:22;;;;;;;34.75;6.07;;;12.20;99.90;;;;;;5071327;28;20025;-85
2024/01/22 07:53:48;;;;;;;34.53;5.93;;;12.20;99.90;;;;;;5070172;28;20028;-86
2024/01/22 07:56:13;;;;;;;33.45;5.78;;;12.10;99.90;;;;;;5070242;28;20396;-86
2024/01/22 07:58:39;;;;;;;38.00;6.47;;;12.10;99.90;;;;;;5069007;28;20066;-85
2024/01/22 08:01:06;;;;;;;42.05;6.25;;;12.10;99.90;;;;;;5072198;28;20027;-85
2024/01/22 08:03:31;;;;;;;36.05;6.18;;;12.10;99.90;;;;;;5080350;28;20107;-86
2024/01/22 08:05:58;;;;;;;36.67;5.88;;;12.10;99.90;;;;;;5090098;28;20419;-86
2024/01/22 08:08:24;;;;;;;29.42;4.95;;;12.20;99.90;;;;;;5091455;28;20028;-86
2024/01/22 08:10:50;;;;;;;40.78;6.25;;;12.20;99.90;;;;;;5091275;28;20021;-86
2024/01/22 08:13:16;;;;;;;29.75;5.15;;;12.20;99.90;;;;;;5091109;28;20103;-85
2024/01/22 08:15:41;;;;;;;28.63;4.60;;;12.10;99.90;;;;;;5091203;28;20053;-86
2024/01/22 08:18:07;;;;;;;28.58;5.55;;;;;;;;;;5083764;28;20040;-85
2024/01/22 08:20:34;;;;;;;37.22;5.43;;;12.10;99.90;;;;;;5070722;28;20029;-85
2024/01/22 08:22:59;;;;;;;40.13;6.65;;;12.10;99.90;;;;;;5070808;28;20029;-85
2024/01/22 08:25:51;;;;;;;30.65;5.50;;;12.30;99.90;;;;;;5070734;28;20028;-86
2024/01/22 08:28:16;;;;;;;36.63;5.72;;;12.10;99.90;;;;;;5070640;28;20658;-85
2024/01/22 08:30:42;;;;;;;22.00;5.18;;;12.20;99.90;;;;;;5070713;28;20116;-85
2024/01/22 08:33:07;;;;;;;34.67;4.80;;;12.20;99.90;;;;;;5071208;28;20571;-85
2024/01/22 08:35:33;;;;;;;32.85;5.28;;;12.20;99.90;;;;;;5070009;28;20504;-86
2024/01/22 08:37:59;;;;;;;30.60;5.00;;;12.30;99.90;;;;;;5070365;28;20244;-86
2024/01/22 08:40:25;;;;;;;33.95;5.57;;;12.30;99.90;;;;;;5070455;28;20438;-86
2024/01/22 08:42:52;;;;;;;36.45;5.75;;;12.30;99.90;;;;;;5069108;28;20488;-87
2024/01/22 08:45:18;;;;;;;31.45;5.55;;;12.40;99.90;;;;;;5068662;28;20071;-86
2024/01/22 08:47:45;;;;;;;25.90;4.95;;;12.40;99.90;;;;;;5070416;28;20020;-87
2024/01/22 08:50:15;;;;;;;29.23;5.25;;;12.50;99.90;;;;;;5070298;28;20024;-86
2024/01/22 08:52:48;;;;;;;33.42;5.43;;;12.40;99.90;;;;;;5070432;28;20122;-86
2024/01/22 08:55:15;;;;;;;30.60;5.85;;;12.40;99.90;;;;;;5070306;28;20554;-86
2024/01/22 08:57:41;;;;;;;29.80;5.40;;;12.40;99.90;;;;;;5070903;28;20024;-85
2024/01/22 09:00:10;;;;;;;36.58;5.15;;;12.40;99.90;;;;;;5071185;28;20101;-86
2024/01/22 09:02:40;;;;;;;28.83;5.05;;;12.40;99.90;;;;;;5071053;28;20020;-86
2024/01/22 09:05:07;;;;;;;31.10;5.53;;;12.40;99.90;;;;;;5070824;28;20025;-86
2024/01/22 09:07:34;;;;;;;38.33;6.28;;;12.40;99.90;;;;;;5069927;28;20051;-86
2024/01/22 09:10:00;;;;;;;34.33;6.55;;;12.40;99.90;;;;;;5070099;28;20025;-86
2024/01/22 09:12:26;;;;;;;27.23;5.47;;;12.50;99.90;;;;;;5069933;28;20028;-85
2024/01/22 09:14:52;;;;;;;34.05;5.10;;;12.40;99.90;;;;;;5069543;28;20484;-86
2024/01/22 09:17:17;;;;;;;38.17;5.63;;;12.30;99.90;;;;;;5068147;28;20029;-85
2024/01/22 09:19:43;;;;;;;30.92;5.57;;;12.30;99.90;;;;;;5069590;28;20033;-86
2024/01/22 09:22:08;;;;;;;32.15;5.00;;;12.40;99.90;;;;;;5070497;28;20392;-85
2024/01/22 09:24:34;;;;;;;30.42;5.15;;;12.30;99.90;;;;;;5069563;28;20021;-85
2024/01/22 09:27:00;;;;;;;29.38;5.70;;;12.30;99.90;;;;;;5069609;28;20021;-87
2024/01/22 09:29:25;;;;;;;30.25;5.35;;;12.40;99.90;;;;;;5068884;28;20028;-86
2024/01/22 09:31:51;;;;;;;32.53;5.65;;;12.40;99.90;;;;;;5069489;28;20032;-86
2024/01/22 09:34:16;;;;;;;32.08;5.10;;;12.30;99.90;;;;;;5069420;28;20056;-86
2024/01/22 09:36:42;;;;;;;26.98;4.60;;;12.50;99.90;;;;;;5069765;28;20020;-85
2024/01/22 09:39:08;;;;;;;28.25;5.75;;;12.40;99.90;;;;;;5070106;28;20066;-86
2024/01/22 09:41:35;;;;;;;26.83;4.57;;;12.40;99.90;;;;;;5068012;28;20036;-85
2024/01/22 09:44:01;;;;;;;35.28;4.93;;;12.40;99.90;;;;;;5067807;28;20025;-86
2024/01/22 09:46:27;;;;;;;38.35;5.47;;;12.50;99.90;;;;;;5069271;28;20483;-85
2024/01/22 09:48:53;;;;;;;33.13;5.72;;;12.50;99.90;;;;;;5069331;28;20027;-86
2024/01/22 09:51:20;;;;;;;31.75;4.43;;;12.60;99.90;;;;;;5069268;28;20020;-86
2024/01/22 09:53:47;;;;;;;25.67;4.85;;;12.70;99.90;;;;;;5069063;28;20104;-86
2024/01/22 09:56:16;;;;;;;28.00;4.70;;;12.60;99.90;;;;;;5070017;28;20024;-85
2024/01/22 09:58:43;;;;;;;28.98;4.68;;;12.40;99.90;;;;;;5069939;28;20028;-86
2024/01/22 10:01:13;;;;;;;27.48;4.45;;;12.60;99.90;;;;;;5069660;28;20017;-85
2024/01/22 10:03:40;;;;;;;25.67;5.05;;;12.50;99.90;;;;;;5069555;28;20451;-85
2024/01/22 10:06:06;;;;;;;28.92;4.28;;;12.50;99.90;;;;;;5069080;28;20017;-86
2024/01/22 10:08:31;;;;;;;30.85;5.45;;;12.60;99.90;;;;;;5069068;28;20020;-86
2024/01/22 10:10:57;;;;;;;20.95;4.70;;;12.60;99.90;;;;;;5069163;28;20495;-86
2024/01/22 10:13:23;;;;;;;25.33;4.32;;;12.50;99.90;;;;;;5069028;28;20027;-86
2024/01/22 10:15:49;;;;;;;24.23;5.20;;;12.60;99.90;;;;;;5067899;28;20025;-86
2024/01/22 10:18:18;;;;;;;25.80;4.22;;;12.60;99.90;;;;;;5069032;28;20071;-85
2024/01/22 10:20:47;;;;;;;27.52;4.53;;;12.50;99.90;;;;;;5069693;28;20024;-85
2024/01/22 10:23:13;;;;;;;26.33;4.40;;;12.50;99.90;;;;;;5069938;28;20107;-86
2024/01/22 10:25:39;;;;;;;24.35;4.15;;;12.60;99.90;;;;;;5069067;28;20032;-87
2024/01/22 10:28:19;;;;;;;18.40;4.50;;;12.60;99.90;;;;;;5069073;28;20409;-86
2024/01/22 10:31:00;;;;;;;21.83;3.78;;;12.60;99.90;;;;;;5068041;28;20416;-86
2024/01/22 10:33:26;;;;;;;23.60;3.88;;;12.70;99.90;;;;;;5068880;28;20103;-86
2024/01/22 10:35:51;;;;;;;17.98;3.13;;;12.60;99.90;;;;;;5068873;28;20108;-86
2024/01/22 10:38:18;;;;;;;19.50;3.72;;;12.70;99.90;;;;;;5068663;28;20033;-86
2024/01/22 10:40:46;;;;;;;24.05;4.68;;;12.70;99.90;;;;;;5069315;28;20477;-86
2024/01/22 10:43:28;;;;;;;17.60;3.60;;;12.60;99.90;;;;;;5069489;28;20021;-86
2024/01/22 10:45:55;;;;;;;37.13;5.13;;;12.60;99.90;;;;;;5068753;28;20067;-87
2024/01/22 10:48:25;;;;;;;34.30;5.35;;;12.60;99.90;;;;;;5067261;28;20437;-85
2024/01/22 10:50:51;;;;;;;24.73;4.63;;;12.80;99.90;;;;;;5048684;28;20029;-87
2024/01/22 10:53:18;;;;;;;22.70;4.53;;;13.00;99.90;;;;;;5067048;28;20024;-86
2024/01/22 10:56:12;;;;;;;25.90;4.30;;;13.10;99.90;;;;;;5069294;28;20392;-87
2024/01/22 10:58:43;;;;;;;30.15;5.72;;;13.20;99.90;;;;;;5068267;28;20040;-86
2024/01/22 11:01:16;;;;;;;31.80;5.50;;;13.10;99.90;;;;;;5067147;28;20511;-85
2024/01/22 11:03:47;;;;;;;23.60;4.38;;;13.10;99.90;;;;;;5068677;28;20033;-86
2024/01/22 11:06:24;;;;;;;23.40;4.03;;;13.10;99.90;;;;;;5067990;28;20021;-86
2024/01/22 11:08:51;;;;;;;20.02;4.18;;;13.10;99.90;;;;;;5067057;28;20036;-85
2024/01/22 11:11:24;;;;;;;31.80;6.07;;;13.00;99.90;;;;;;5067978;28;20028;-86
2024/01/22 11:13:51;;;;;;;26.67;4.97;;;12.90;99.90;;;;;;5067139;28;20078;-86
2024/01/22 11:16:19;;;;;;;25.57;5.03;;;12.90;99.90;;;;;;5068894;28;20569;-86
2024/01/22 11:18:58;;;;;;;31.83;4.50;;;12.90;99.90;;;;;;5068022;28;20037;-85
2024/01/22 11:21:24;;;;;;;31.70;4.88;;;13.00;99.90;;;;;;5067442;28;20369;-85
2024/01/22 11:24:04;;;;;;;28.70;4.47;;;12.90;99.90;;;;;;5067161;28;20024;-86
2024/01/22 11:26:30;;;;;;;35.72;5.72;;;12.90;99.90;;;;;;5068266;28;20047;-86
2024/01/22 11:29:08;;;;;;;38.53;6.50;;;12.80;99.90;;;;;;5072164;28;20401;-86
2024/01/22 11:31:35;;;;;;;32.05;4.60;;;12.90;99.90;;;;;;5071449;28;20050;-86
2024/01/22 11:34:02;;;;;;;32.30;4.47;;;12.80;99.90;;;;;;5071838;28;20021;-87
2024/01/22 11:36:53;;;;;;;30.48;4.97;;;12.90;99.90;;;;;;5070448;28;20024;-87
2024/01/22 11:39:35;;;;;;;22.33;4.15;;;12.70;99.90;;;;;;5072769;28;20036;-86
2024/01/22 11:42:15;;;;;;;22.67;4.38;;;12.50;99.90;;;;;;5071808;28;20012;-88
2024/01/22 11:44:41;;;;;;;17.75;3.08;;;;;;;;;;5071579;28;20040;-87
2024/01/22 11:47:10;;;;;;;8.50;2.47;;;11.80;99.90;;;;;;5071807;28;20392;-87
2024/01/22 11:49:36;;;;;;;8.82;2.20;;;11.40;99.90;;;;;;5071630;28;20436;-87
2024/01/22 11:52:29;;;;;;;10.35;2.60;;;11.20;99.90;;;;;;5071789;28;20114;-85
2024/01/22 11:55:00;;;;;;;5.95;1.58;;;11.00;99.90;;;;;;5068462;28;20485;-85
2024/01/22 11:57:29;;;;;;;13.63;2.03;;;10.90;99.90;;;;;;5071856;28;20025;-86
2024/01/22 12:00:12;;;;;;;7.85;1.40;;;11.20;99.90;;;;;;5072378;28;20036;-86
2024/01/22 12:02:44;;;;;;;8.35;1.38;;;10.70;99.90;;;;;;5074274;28;20028;-87
2024/01/22 12:05:12;;;;;;;9.10;1.73;;;10.70;99.90;;;;;;5073790;28;20036;-87
2024/01/22 12:07:38;;;;;;;11.85;2.35;;;10.80;99.90;;;;;;5070305;28;20051;-87
2024/01/22 12:10:25;;;;;;;10.75;2.38;;;10.90;99.90;;;;;;5070582;28;20047;-87
2024/01/22 12:12:52;;;;;;;13.02;3.08;;;11.00;99.90;;;;;;5069207;28;20115;-87
2024/01/22 12:15:18;;;;;;;10.18;2.30;;;;;;;;;;5072092;28;20480;-85
2024/01/22 12:17:44;;;;;;;9.60;2.45;;;11.20;99.90;;;;;;5069777;28;20116;-87
2024/01/22 12:20:10;;;;;;;13.50;2.53;;;11.30;99.90;;;;;;5069652;28;20039;-87
2024/01/22 12:22:36;;;;;;;11.52;2.25;;;11.40;99.90;;;;;;5070984;28;20076;-87
2024/01/22 12:25:09;;;;;;;15.52;2.88;;;11.50;99.90;;;;;;5069065;28;20032;-87
2024/01/22 12:27:36;;;;;;;13.30;2.95;;;11.70;99.90;;;;;;5069348;28;20045;-87
2024/01/22 12:30:05;;;;;;;12.60;2.22;;;11.70;99.90;;;;;;5070769;28;20033;-87
2024/01/22 12:32:33;;;;;;;11.50;2.63;;;11.80;99.90;;;;;;5069367;28;20032;-87
2024/01/22 12:34:59;;;;;;;16.63;2.53;;;11.70;99.90;;;;;;5070824;28;20017;-88
2024/01/22 12:37:34;;;;;;;11.00;2.53;;;11.80;99.90;;;;;;5068712;28;20027;-86
2024/01/22 12:40:16;;;;;;;14.85;2.67;;;11.80;99.90;;;;;;5069719;28;20040;-86
2024/01/22 12:42:47;;;;;;;11.60;2.65;;;11.80;99.90;;;;;;5069105;28;20437;-85